sensor_id;sensor_type;location;lat;lon;timestamp;P1;durP1;ratioP1;P2;durP2;ratioP2
62401;SDS011;48440;51.224;22.506;2024-01-10T00:06:46;43.92;;;17.42;;
62401;SDS011;48440;51.224;22.506;2024-01-10T02:22:05;53.70;;;21.83;;
62401;SDS011;48440;51.224;22.506;2024-01-10T03:54:02;58.38;;;22.17;;
62401;SDS011;48440;51.224;22.506;2024-01-10T04:43:38;47.20;;;18.15;;
62401;SDS011;48440;51.224;22.506;2024-01-10T05:57:28;40.97;;;17.13;;
62401;SDS011;48440;51.224;22.506;2024-01-10T06:07:33;42.97;;;16.13;;
62401;SDS011;48440;51.224;22.506;2024-01-10T06:51:04;44.78;;;13.90;;
62401;SDS011;48440;51.224;22.506;2024-01-10T06:53:36;44.35;;;15.65;;
62401;SDS011;48440;51.224;22.506;2024-01-10T06:56:01;40.63;;;14.52;;
62401;SDS011;48440;51.224;22.506;2024-01-10T06:58:27;41.60;;;14.35;;
62401;SDS011;48440;51.224;22.506;2024-01-10T07:00:53;33.97;;;12.93;;
62401;SDS011;48440;51.224;22.506;2024-01-10T07:03:19;43.97;;;15.18;;
62401;SDS011;48440;51.224;22.506;2024-01-10T07:05:45;36.50;;;13.98;;
62401;SDS011;48440;51.224;22.506;2024-01-10T07:08:17;39.97;;;14.90;;
62401;SDS011;48440;51.224;22.506;2024-01-10T07:10:56;36.03;;;13.98;;
62401;SDS011;48440;51.224;22.506;2024-01-10T07:13:22;43.05;;;14.98;;
62401;SDS011;48440;51.224;22.506;2024-01-10T07:15:48;39.08;;;13.23;;
62401;SDS011;48440;51.224;22.506;2024-01-10T07:18:16;37.50;;;13.93;;
62401;SDS011;48440;51.224;22.506;2024-01-10T07:20:42;39.17;;;13.82;;
62401;SDS011;48440;51.224;22.506;2024-01-10T07:23:08;47.50;;;15.40;;
62401;SDS011;48440;51.224;22.506;2024-01-10T07:25:34;37.97;;;13.90;;
62401;SDS011;48440;51.224;22.506;2024-01-10T07:27:59;43.00;;;15.82;;
62401;SDS011;48440;51.224;22.506;2024-01-10T07:30:26;38.28;;;14.80;;
62401;SDS011;48440;51.224;22.506;2024-01-10T07:32:51;36.75;;;14.00;;
62401;SDS011;48440;51.224;22.506;2024-01-10T07:35:17;44.47;;;15.70;;
62401;SDS011;48440;51.224;22.506;2024-01-10T07:37:43;45.13;;;15.35;;
62401;SDS011;48440;51.224;22.506;2024-01-10T07:40:09;40.45;;;13.60;;
62401;SDS011;48440;51.224;22.506;2024-01-10T07:42:38;43.85;;;14.65;;
62401;SDS011;48440;51.224;22.506;2024-01-10T07:45:05;42.83;;;14.50;;
62401;SDS011;48440;51.224;22.506;2024-01-10T07:47:31;41.65;;;14.80;;
62401;SDS011;48440;51.224;22.506;2024-01-10T07:49:59;38.25;;;14.50;;
62401;SDS011;48440;51.224;22.506;2024-01-10T07:52:25;35.33;;;13.10;;
62401;SDS011;48440;51.224;22.506;2024-01-10T07:54:50;33.97;;;14.80;;
62401;SDS011;48440;51.224;22.506;2024-01-10T07:57:19;36.15;;;14.02;;
62401;SDS011;48440;51.224;22.506;2024-01-10T07:59:47;36.10;;;13.35;;
62401;SDS011;48440;51.224;22.506;2024-01-10T08:02:18;37.28;;;13.52;;
62401;SDS011;48440;51.224;22.506;2024-01-10T08:07:46;37.60;;;14.30;;
62401;SDS011;48440;51.224;22.506;2024-01-10T08:10:24;32.88;;;11.98;;
62401;SDS011;48440;51.224;22.506;2024-01-10T08:13:03;36.47;;;14.35;;
62401;SDS011;48440;51.224;22.506;2024-01-10T08:15:36;38.15;;;13.25;;
62401;SDS011;48440;51.224;22.506;2024-01-10T08:18:05;44.40;;;14.43;;
62401;SDS011;48440;51.224;22.506;2024-01-10T08:20:32;38.05;;;14.63;;
62401;SDS011;48440;51.224;22.506;2024-01-10T08:22:58;40.15;;;14.15;;
62401;SDS011;48440;51.224;22.506;2024-01-10T08:25:24;35.03;;;13.18;;
62401;SDS011;48440;51.224;22.506;2024-01-10T08:27:50;37.72;;;13.57;;
62401;SDS011;48440;51.224;22.506;2024-01-10T08:30:18;37.97;;;13.68;;
62401;SDS011;48440;51.224;22.506;2024-01-10T08:32:44;36.53;;;15.00;;
62401;SDS011;48440;51.224;22.506;2024-01-10T08:35:09;39.30;;;13.77;;
62401;SDS011;48440;51.224;22.506;2024-01-10T08:37:36;33.78;;;14.07;;
62401;SDS011;48440;51.224;22.506;2024-01-10T08:40:02;41.15;;;14.55;;
62401;SDS011;48440;51.224;22.506;2024-01-10T08:42:32;37.30;;;14.48;;
62401;SDS011;48440;51.224;22.506;2024-01-10T08:44:58;41.85;;;14.85;;
62401;SDS011;48440;51.224;22.506;2024-01-10T08:47:24;43.03;;;15.50;;
62401;SDS011;48440;51.224;22.506;2024-01-10T08:49:49;37.92;;;14.27;;
62401;SDS011;48440;51.224;22.506;2024-01-10T08:52:15;38.30;;;14.35;;
62401;SDS011;48440;51.224;22.506;2024-01-10T08:54:40;33.17;;;13.60;;
62401;SDS011;48440;51.224;22.506;2024-01-10T08:57:06;37.50;;;14.18;;
62401;SDS011;48440;51.224;22.506;2024-01-10T08:59:31;36.38;;;13.80;;
62401;SDS011;48440;51.224;22.506;2024-01-10T09:01:57;39.88;;;14.63;;
62401;SDS011;48440;51.224;22.506;2024-01-10T09:04:23;36.63;;;14.80;;
62401;SDS011;48440;51.224;22.506;2024-01-10T09:06:48;37.45;;;13.82;;
62401;SDS011;48440;51.224;22.506;2024-01-10T09:09:14;43.40;;;14.73;;
62401;SDS011;48440;51.224;22.506;2024-01-10T09:11:39;37.22;;;13.90;;
62401;SDS011;48440;51.224;22.506;2024-01-10T09:14:05;44.38;;;15.98;;
62401;SDS011;48440;51.224;22.506;2024-01-10T09:16:31;39.72;;;16.27;;
62401;SDS011;48440;51.224;22.506;2024-01-10T09:18:56;35.50;;;15.30;;
62401;SDS011;48440;51.224;22.506;2024-01-10T09:21:23;41.65;;;15.90;;
62401;SDS011;48440;51.224;22.506;2024-01-10T09:23:49;42.75;;;16.83;;
62401;SDS011;48440;51.224;22.506;2024-01-10T09:26:17;39.38;;;16.92;;
62401;SDS011;48440;51.224;22.506;2024-01-10T09:28:43;42.42;;;17.83;;
62401;SDS011;48440;51.224;22.506;2024-01-10T09:31:09;42.45;;;18.38;;
62401;SDS011;48440;51.224;22.506;2024-01-10T09:33:34;43.38;;;18.45;;
62401;SDS011;48440;51.224;22.506;2024-01-10T09:36:00;50.13;;;19.17;;
62401;SDS011;48440;51.224;22.506;2024-01-10T09:38:25;46.45;;;19.73;;
62401;SDS011;48440;51.224;22.506;2024-01-10T09:40:52;42.92;;;18.08;;
62401;SDS011;48440;51.224;22.506;2024-01-10T09:43:24;41.53;;;18.70;;
62401;SDS011;48440;51.224;22.506;2024-01-10T09:45:49;37.85;;;17.70;;
62401;SDS011;48440;51.224;22.506;2024-01-10T09:48:15;46.28;;;19.25;;
62401;SDS011;48440;51.224;22.506;2024-01-10T09:50:41;46.85;;;18.80;;
62401;SDS011;48440;51.224;22.506;2024-01-10T09:53:07;42.92;;;18.90;;
62401;SDS011;48440;51.224;22.506;2024-01-10T09:55:38;38.70;;;17.90;;
62401;SDS011;48440;51.224;22.506;2024-01-10T09:58:07;41.17;;;18.60;;
62401;SDS011;48440;51.224;22.506;2024-01-10T10:00:34;43.00;;;18.45;;
62401;SDS011;48440;51.224;22.506;2024-01-10T10:03:03;40.30;;;18.65;;
62401;SDS011;48440;51.224;22.506;2024-01-10T10:05:32;43.00;;;17.85;;
62401;SDS011;48440;51.224;22.506;2024-01-10T10:07:59;41.03;;;18.42;;
62401;SDS011;48440;51.224;22.506;2024-01-10T10:10:24;40.13;;;18.05;;
62401;SDS011;48440;51.224;22.506;2024-01-10T10:12:50;40.72;;;17.80;;
62401;SDS011;48440;51.224;22.506;2024-01-10T10:15:18;40.42;;;18.63;;
62401;SDS011;48440;51.224;22.506;2024-01-10T10:17:49;40.90;;;18.30;;
62401;SDS011;48440;51.224;22.506;2024-01-10T10:20:22;41.70;;;19.00;;
62401;SDS011;48440;51.224;22.506;2024-01-10T10:25:27;45.83;;;20.15;;
62401;SDS011;48440;51.224;22.506;2024-01-10T10:27:55;52.95;;;23.17;;
62401;SDS011;48440;51.224;22.506;2024-01-10T10:30:21;39.60;;;18.55;;
62401;SDS011;48440;51.224;22.506;2024-01-10T10:32:47;42.72;;;19.08;;
62401;SDS011;48440;51.224;22.506;2024-01-10T10:35:13;48.10;;;19.80;;
62401;SDS011;48440;51.224;22.506;2024-01-10T10:37:38;45.38;;;19.35;;
62401;SDS011;48440;51.224;22.506;2024-01-10T10:40:04;45.85;;;20.70;;
62401;SDS011;48440;51.224;22.506;2024-01-10T10:42:33;42.33;;;19.30;;
62401;SDS011;48440;51.224;22.506;2024-01-10T10:45:01;45.92;;;20.23;;
62401;SDS011;48440;51.224;22.506;2024-01-10T10:47:30;46.70;;;19.88;;
62401;SDS011;48440;51.224;22.506;2024-01-10T10:50:01;48.47;;;20.60;;
62401;SDS011;48440;51.224;22.506;2024-01-10T10:52:28;42.78;;;20.75;;
62401;SDS011;48440;51.224;22.506;2024-01-10T10:54:55;46.22;;;20.95;;
62401;SDS011;48440;51.224;22.506;2024-01-10T10:57:22;51.45;;;22.08;;
62401;SDS011;48440;51.224;22.506;2024-01-10T10:59:51;47.45;;;21.48;;
62401;SDS011;48440;51.224;22.506;2024-01-10T11:02:20;48.30;;;21.13;;
62401;SDS011;48440;51.224;22.506;2024-01-10T11:04:49;51.42;;;21.80;;
62401;SDS011;48440;51.224;22.506;2024-01-10T11:07:16;52.42;;;20.90;;
62401;SDS011;48440;51.224;22.506;2024-01-10T11:09:43;55.75;;;22.25;;
62401;SDS011;48440;51.224;22.506;2024-01-10T11:15:02;47.90;;;19.90;;
62401;SDS011;48440;51.224;22.506;2024-01-10T11:18:01;45.58;;;18.73;;
62401;SDS011;48440;51.224;22.506;2024-01-10T11:21:03;49.97;;;18.88;;
62401;SDS011;48440;51.224;22.506;2024-01-10T11:23:45;49.35;;;19.90;;
62401;SDS011;48440;51.224;22.506;2024-01-10T11:26:14;44.53;;;19.33;;
62401;SDS011;48440;51.224;22.506;2024-01-10T11:28:40;57.55;;;21.20;;
62401;SDS011;48440;51.224;22.506;2024-01-10T11:31:07;53.15;;;20.75;;
62401;SDS011;48440;51.224;22.506;2024-01-10T11:33:39;54.95;;;22.25;;
62401;SDS011;48440;51.224;22.506;2024-01-10T11:36:16;55.80;;;21.27;;
62401;SDS011;48440;51.224;22.506;2024-01-10T11:39:26;54.17;;;21.77;;
62401;SDS011;48440;51.224;22.506;2024-01-10T11:41:31;49.65;;;21.38;;
62401;SDS011;48440;51.224;22.506;2024-01-10T11:46:42;62.75;;;22.70;;
62401;SDS011;48440;51.224;22.506;2024-01-10T11:49:21;52.25;;;21.85;;
62401;SDS011;48440;51.224;22.506;2024-01-10T11:51:48;53.20;;;20.92;;
62401;SDS011;48440;51.224;22.506;2024-01-10T11:57:20;57.72;;;21.05;;
62401;SDS011;48440;51.224;22.506;2024-01-10T11:59:47;51.55;;;19.58;;
62401;SDS011;48440;51.224;22.506;2024-01-10T12:02:15;48.85;;;20.02;;
62401;SDS011;48440;51.224;22.506;2024-01-10T12:04:42;60.40;;;22.48;;
62401;SDS011;48440;51.224;22.506;2024-01-10T12:07:07;53.35;;;21.17;;
62401;SDS011;48440;51.224;22.506;2024-01-10T12:09:34;48.95;;;19.77;;
62401;SDS011;48440;51.224;22.506;2024-01-10T12:12:00;49.75;;;19.23;;
62401;SDS011;48440;51.224;22.506;2024-01-10T12:14:26;50.55;;;20.40;;
62401;SDS011;48440;51.224;22.506;2024-01-10T12:16:53;52.90;;;20.73;;
62401;SDS011;48440;51.224;22.506;2024-01-10T12:19:18;53.03;;;21.85;;
62401;SDS011;48440;51.224;22.506;2024-01-10T12:21:44;60.17;;;23.80;;
62401;SDS011;48440;51.224;22.506;2024-01-10T12:24:09;56.92;;;23.20;;
62401;SDS011;48440;51.224;22.506;2024-01-10T12:26:35;55.20;;;21.77;;
62401;SDS011;48440;51.224;22.506;2024-01-10T12:29:01;56.75;;;22.92;;
62401;SDS011;48440;51.224;22.506;2024-01-10T12:31:29;59.53;;;21.83;;
62401;SDS011;48440;51.224;22.506;2024-01-10T12:33:55;49.85;;;19.60;;
62401;SDS011;48440;51.224;22.506;2024-01-10T12:36:21;56.53;;;21.55;;
62401;SDS011;48440;51.224;22.506;2024-01-10T12:38:46;59.58;;;21.67;;
62401;SDS011;48440;51.224;22.506;2024-01-10T12:41:15;54.72;;;22.77;;
62401;SDS011;48440;51.224;22.506;2024-01-10T12:43:42;65.63;;;24.30;;
62401;SDS011;48440;51.224;22.506;2024-01-10T12:46:11;60.58;;;23.00;;
62401;SDS011;48440;51.224;22.506;2024-01-10T12:48:37;56.65;;;23.38;;
62401;SDS011;48440;51.224;22.506;2024-01-10T12:51:06;60.92;;;22.83;;
62401;SDS011;48440;51.224;22.506;2024-01-10T12:53:34;57.83;;;23.60;;
62401;SDS011;48440;51.224;22.506;2024-01-10T12:56:00;59.75;;;22.45;;
62401;SDS011;48440;51.224;22.506;2024-01-10T12:58:25;62.85;;;23.55;;
62401;SDS011;48440;51.224;22.506;2024-01-10T13:00:51;64.00;;;23.38;;
62401;SDS011;48440;51.224;22.506;2024-01-10T13:03:17;61.53;;;23.00;;
62401;SDS011;48440;51.224;22.506;2024-01-10T13:05:43;63.38;;;23.08;;
62401;SDS011;48440;51.224;22.506;2024-01-10T13:08:09;57.47;;;23.08;;
62401;SDS011;48440;51.224;22.506;2024-01-10T13:10:36;60.40;;;22.70;;
62401;SDS011;48440;51.224;22.506;2024-01-10T13:13:02;56.45;;;20.60;;
62401;SDS011;48440;51.224;22.506;2024-01-10T13:15:27;58.20;;;21.75;;
62401;SDS011;48440;51.224;22.506;2024-01-10T13:17:53;55.92;;;20.65;;
62401;SDS011;48440;51.224;22.506;2024-01-10T13:20:19;60.88;;;21.45;;
62401;SDS011;48440;51.224;22.506;2024-01-10T13:22:45;46.67;;;18.30;;
62401;SDS011;48440;51.224;22.506;2024-01-10T13:25:11;51.17;;;19.38;;
62401;SDS011;48440;51.224;22.506;2024-01-10T13:27:36;52.45;;;17.92;;
62401;SDS011;48440;51.224;22.506;2024-01-10T13:30:02;52.80;;;18.67;;
62401;SDS011;48440;51.224;22.506;2024-01-10T13:32:29;61.13;;;19.42;;
62401;SDS011;48440;51.224;22.506;2024-01-10T13:34:54;60.13;;;20.63;;
62401;SDS011;48440;51.224;22.506;2024-01-10T13:37:20;49.97;;;19.55;;
62401;SDS011;48440;51.224;22.506;2024-01-10T13:39:46;59.90;;;19.27;;
62401;SDS011;48440;51.224;22.506;2024-01-10T13:42:11;56.20;;;20.40;;
62401;SDS011;48440;51.224;22.506;2024-01-10T13:44:37;52.72;;;18.98;;
62401;SDS011;48440;51.224;22.506;2024-01-10T13:47:03;54.88;;;19.38;;
62401;SDS011;48440;51.224;22.506;2024-01-10T13:49:29;56.60;;;19.40;;
62401;SDS011;48440;51.224;22.506;2024-01-10T13:51:55;56.05;;;20.55;;
62401;SDS011;48440;51.224;22.506;2024-01-10T13:54:20;52.95;;;19.55;;
62401;SDS011;48440;51.224;22.506;2024-01-10T13:56:46;59.70;;;21.27;;
62401;SDS011;48440;51.224;22.506;2024-01-10T13:59:12;55.08;;;20.38;;
62401;SDS011;48440;51.224;22.506;2024-01-10T14:01:38;55.55;;;19.30;;
62401;SDS011;48440;51.224;22.506;2024-01-10T14:04:04;55.97;;;20.00;;
62401;SDS011;48440;51.224;22.506;2024-01-10T14:06:30;62.67;;;21.20;;
62401;SDS011;48440;51.224;22.506;2024-01-10T14:08:56;55.00;;;19.65;;
62401;SDS011;48440;51.224;22.506;2024-01-10T14:11:22;55.38;;;19.23;;
62401;SDS011;48440;51.224;22.506;2024-01-10T14:13:48;61.45;;;18.10;;
62401;SDS011;48440;51.224;22.506;2024-01-10T14:16:14;56.05;;;19.27;;
62401;SDS011;48440;51.224;22.506;2024-01-10T14:18:40;54.10;;;20.77;;
62401;SDS011;48440;51.224;22.506;2024-01-10T14:21:05;57.03;;;19.10;;
62401;SDS011;48440;51.224;22.506;2024-01-10T14:23:31;59.75;;;21.00;;
62401;SDS011;48440;51.224;22.506;2024-01-10T14:25:56;64.10;;;20.67;;
62401;SDS011;48440;51.224;22.506;2024-01-10T14:28:22;57.30;;;19.95;;
62401;SDS011;48440;51.224;22.506;2024-01-10T14:30:47;61.38;;;20.38;;
62401;SDS011;48440;51.224;22.506;2024-01-10T14:33:13;62.00;;;21.52;;
62401;SDS011;48440;51.224;22.506;2024-01-10T14:35:39;54.53;;;19.60;;
62401;SDS011;48440;51.224;22.506;2024-01-10T14:38:05;60.83;;;21.02;;
62401;SDS011;48440;51.224;22.506;2024-01-10T14:40:31;55.85;;;19.33;;
62401;SDS011;48440;51.224;22.506;2024-01-10T14:42:56;56.75;;;19.52;;
62401;SDS011;48440;51.224;22.506;2024-01-10T14:45:22;60.00;;;21.80;;
62401;SDS011;48440;51.224;22.506;2024-01-10T14:47:47;60.45;;;20.23;;
62401;SDS011;48440;51.224;22.506;2024-01-10T14:50:14;67.65;;;22.08;;
62401;SDS011;48440;51.224;22.506;2024-01-10T14:52:40;59.15;;;20.10;;
62401;SDS011;48440;51.224;22.506;2024-01-10T14:55:05;61.35;;;21.33;;
62401;SDS011;48440;51.224;22.506;2024-01-10T14:57:31;54.90;;;20.05;;
62401;SDS011;48440;51.224;22.506;2024-01-10T14:59:58;66.65;;;22.08;;
62401;SDS011;48440;51.224;22.506;2024-01-10T15:02:24;57.88;;;20.48;;
62401;SDS011;48440;51.224;22.506;2024-01-10T15:04:50;54.92;;;19.45;;
62401;SDS011;48440;51.224;22.506;2024-01-10T15:07:15;60.55;;;20.05;;
62401;SDS011;48440;51.224;22.506;2024-01-10T15:09:44;50.97;;;19.50;;
62401;SDS011;48440;51.224;22.506;2024-01-10T15:12:09;51.63;;;19.88;;
62401;SDS011;48440;51.224;22.506;2024-01-10T15:14:35;56.97;;;20.45;;
62401;SDS011;48440;51.224;22.506;2024-01-10T15:17:02;56.30;;;19.35;;
62401;SDS011;48440;51.224;22.506;2024-01-10T15:19:30;57.45;;;19.70;;
62401;SDS011;48440;51.224;22.506;2024-01-10T15:21:56;50.63;;;18.98;;
62401;SDS011;48440;51.224;22.506;2024-01-10T15:24:23;56.67;;;19.98;;
62401;SDS011;48440;51.224;22.506;2024-01-10T15:26:49;54.00;;;19.98;;
62401;SDS011;48440;51.224;22.506;2024-01-10T15:29:15;61.80;;;19.67;;
62401;SDS011;48440;51.224;22.506;2024-01-10T15:31:40;63.33;;;20.33;;
62401;SDS011;48440;51.224;22.506;2024-01-10T15:34:06;63.00;;;19.30;;
62401;SDS011;48440;51.224;22.506;2024-01-10T15:36:31;53.42;;;19.27;;
62401;SDS011;48440;51.224;22.506;2024-01-10T15:38:57;62.30;;;20.05;;
62401;SDS011;48440;51.224;22.506;2024-01-10T15:41:22;57.15;;;19.85;;
62401;SDS011;48440;51.224;22.506;2024-01-10T15:43:48;63.17;;;20.52;;
62401;SDS011;48440;51.224;22.506;2024-01-10T15:46:19;59.28;;;19.30;;
62401;SDS011;48440;51.224;22.506;2024-01-10T15:48:48;50.03;;;18.42;;
62401;SDS011;48440;51.224;22.506;2024-01-10T15:51:13;58.83;;;22.17;;
62401;SDS011;48440;51.224;22.506;2024-01-10T15:53:39;60.83;;;20.45;;
62401;SDS011;48440;51.224;22.506;2024-01-10T15:56:05;58.67;;;20.73;;
62401;SDS011;48440;51.224;22.506;2024-01-10T15:58:30;56.75;;;21.25;;
62401;SDS011;48440;51.224;22.506;2024-01-10T16:00:58;75.78;;;23.23;;
62401;SDS011;48440;51.224;22.506;2024-01-10T16:03:23;80.43;;;25.17;;
62401;SDS011;48440;51.224;22.506;2024-01-10T16:05:49;68.80;;;22.95;;
62401;SDS011;48440;51.224;22.506;2024-01-10T16:08:17;73.65;;;22.73;;
62401;SDS011;48440;51.224;22.506;2024-01-10T16:10:44;80.55;;;25.00;;
62401;SDS011;48440;51.224;22.506;2024-01-10T16:13:10;84.03;;;26.98;;
62401;SDS011;48440;51.224;22.506;2024-01-10T16:15:35;79.60;;;28.27;;
62401;SDS011;48440;51.224;22.506;2024-01-10T16:18:01;93.68;;;31.00;;
62401;SDS011;48440;51.224;22.506;2024-01-10T16:20:27;94.10;;;32.65;;
62401;SDS011;48440;51.224;22.506;2024-01-10T16:22:53;94.95;;;33.72;;
62401;SDS011;48440;51.224;22.506;2024-01-10T16:25:18;109.57;;;36.35;;
62401;SDS011;48440;51.224;22.506;2024-01-10T16:27:44;91.13;;;32.78;;
62401;SDS011;48440;51.224;22.506;2024-01-10T16:30:10;95.68;;;34.97;;
62401;SDS011;48440;51.224;22.506;2024-01-10T16:32:36;91.00;;;36.47;;
62401;SDS011;48440;51.224;22.506;2024-01-10T16:35:01;108.25;;;36.17;;
62401;SDS011;48440;51.224;22.506;2024-01-10T16:37:27;110.90;;;38.45;;
62401;SDS011;48440;51.224;22.506;2024-01-10T16:39:53;122.47;;;39.85;;
62401;SDS011;48440;51.224;22.506;2024-01-10T16:42:18;119.50;;;38.08;;
62401;SDS011;48440;51.224;22.506;2024-01-10T16:44:44;111.10;;;37.25;;
62401;SDS011;48440;51.224;22.506;2024-01-10T16:47:10;111.22;;;37.63;;
62401;SDS011;48440;51.224;22.506;2024-01-10T16:49:35;119.95;;;40.75;;
62401;SDS011;48440;51.224;22.506;2024-01-10T16:52:01;115.38;;;37.70;;
62401;SDS011;48440;51.224;22.506;2024-01-10T16:54:26;115.13;;;40.00;;
62401;SDS011;48440;51.224;22.506;2024-01-10T16:56:52;106.28;;;37.90;;
62401;SDS011;48440;51.224;22.506;2024-01-10T16:59:17;103.72;;;39.15;;
62401;SDS011;48440;51.224;22.506;2024-01-10T17:01:47;118.13;;;38.58;;
62401;SDS011;48440;51.224;22.506;2024-01-10T17:04:12;129.70;;;40.65;;
62401;SDS011;48440;51.224;22.506;2024-01-10T17:06:38;116.25;;;37.28;;
62401;SDS011;48440;51.224;22.506;2024-01-10T17:09:04;127.45;;;39.22;;
62401;SDS011;48440;51.224;22.506;2024-01-10T17:11:29;109.32;;;39.13;;
62401;SDS011;48440;51.224;22.506;2024-01-10T17:13:55;127.25;;;37.95;;
62401;SDS011;48440;51.224;22.506;2024-01-10T17:16:21;110.60;;;40.03;;
62401;SDS011;48440;51.224;22.506;2024-01-10T17:18:47;118.32;;;39.63;;
62401;SDS011;48440;51.224;22.506;2024-01-10T17:21:13;138.68;;;43.90;;
62401;SDS011;48440;51.224;22.506;2024-01-10T17:23:38;125.78;;;39.13;;
62401;SDS011;48440;51.224;22.506;2024-01-10T17:26:04;134.25;;;41.00;;
62401;SDS011;48440;51.224;22.506;2024-01-10T17:28:29;128.35;;;42.00;;
62401;SDS011;48440;51.224;22.506;2024-01-10T17:30:55;124.88;;;42.38;;
62401;SDS011;48440;51.224;22.506;2024-01-10T17:33:21;128.63;;;40.75;;
62401;SDS011;48440;51.224;22.506;2024-01-10T17:35:47;127.22;;;40.83;;
62401;SDS011;48440;51.224;22.506;2024-01-10T17:38:13;142.20;;;40.63;;
62401;SDS011;48440;51.224;22.506;2024-01-10T17:40:41;127.95;;;41.83;;
62401;SDS011;48440;51.224;22.506;2024-01-10T17:43:10;134.75;;;42.28;;
62401;SDS011;48440;51.224;22.506;2024-01-10T17:45:36;130.80;;;43.03;;
62401;SDS011;48440;51.224;22.506;2024-01-10T17:48:05;126.07;;;44.30;;
62401;SDS011;48440;51.224;22.506;2024-01-10T17:50:33;127.40;;;42.53;;
62401;SDS011;48440;51.224;22.506;2024-01-10T17:52:59;127.55;;;42.20;;
62401;SDS011;48440;51.224;22.506;2024-01-10T17:55:26;121.28;;;40.92;;
62401;SDS011;48440;51.224;22.506;2024-01-10T17:57:51;129.23;;;43.10;;
62401;SDS011;48440;51.224;22.506;2024-01-10T18:00:17;131.20;;;44.15;;
62401;SDS011;48440;51.224;22.506;2024-01-10T18:02:43;139.20;;;44.92;;
62401;SDS011;48440;51.224;22.506;2024-01-10T18:05:08;139.82;;;44.13;;
62401;SDS011;48440;51.224;22.506;2024-01-10T18:07:34;123.72;;;43.47;;
62401;SDS011;48440;51.224;22.506;2024-01-10T18:10:00;132.73;;;46.47;;
62401;SDS011;48440;51.224;22.506;2024-01-10T18:12:26;131.00;;;45.10;;
62401;SDS011;48440;51.224;22.506;2024-01-10T18:14:51;139.30;;;46.35;;
62401;SDS011;48440;51.224;22.506;2024-01-10T18:17:46;137.25;;;44.00;;
62401;SDS011;48440;51.224;22.506;2024-01-10T18:20:17;141.55;;;47.10;;
62401;SDS011;48440;51.224;22.506;2024-01-10T18:22:43;142.30;;;45.92;;
62401;SDS011;48440;51.224;22.506;2024-01-10T18:25:09;136.23;;;43.78;;
62401;SDS011;48440;51.224;22.506;2024-01-10T18:27:34;129.50;;;45.72;;
62401;SDS011;48440;51.224;22.506;2024-01-10T18:30:00;132.98;;;46.42;;
62401;SDS011;48440;51.224;22.506;2024-01-10T18:32:25;146.57;;;46.13;;
62401;SDS011;48440;51.224;22.506;2024-01-10T18:34:51;151.30;;;47.58;;
62401;SDS011;48440;51.224;22.506;2024-01-10T18:37:17;135.30;;;43.88;;
62401;SDS011;48440;51.224;22.506;2024-01-10T18:39:43;126.35;;;43.85;;
62401;SDS011;48440;51.224;22.506;2024-01-10T18:42:09;156.65;;;45.85;;
62401;SDS011;48440;51.224;22.506;2024-01-10T18:44:36;129.70;;;43.55;;
62401;SDS011;48440;51.224;22.506;2024-01-10T18:47:02;127.05;;;40.72;;
62401;SDS011;48440;51.224;22.506;2024-01-10T18:49:29;134.25;;;41.72;;
62401;SDS011;48440;51.224;22.506;2024-01-10T18:52:06;142.27;;;43.58;;
62401;SDS011;48440;51.224;22.506;2024-01-10T18:54:33;132.65;;;42.13;;
62401;SDS011;48440;51.224;22.506;2024-01-10T18:57:07;129.02;;;42.13;;
62401;SDS011;48440;51.224;22.506;2024-01-10T18:59:42;119.50;;;41.60;;
62401;SDS011;48440;51.224;22.506;2024-01-10T19:02:19;125.20;;;41.42;;
62401;SDS011;48440;51.224;22.506;2024-01-10T19:04:51;123.40;;;40.65;;
62401;SDS011;48440;51.224;22.506;2024-01-10T19:07:56;127.68;;;42.05;;
62401;SDS011;48440;51.224;22.506;2024-01-10T19:10:22;120.45;;;41.63;;
62401;SDS011;48440;51.224;22.506;2024-01-10T19:12:47;117.80;;;40.78;;
62401;SDS011;48440;51.224;22.506;2024-01-10T19:15:13;115.15;;;39.10;;
62401;SDS011;48440;51.224;22.506;2024-01-10T19:17:39;127.25;;;41.67;;
62401;SDS011;48440;51.224;22.506;2024-01-10T19:20:05;145.95;;;42.33;;
62401;SDS011;48440;51.224;22.506;2024-01-10T19:22:31;128.80;;;41.88;;
62401;SDS011;48440;51.224;22.506;2024-01-10T19:25:00;138.80;;;43.53;;
62401;SDS011;48440;51.224;22.506;2024-01-10T19:27:25;130.55;;;42.03;;
62401;SDS011;48440;51.224;22.506;2024-01-10T19:29:51;116.65;;;40.70;;
62401;SDS011;48440;51.224;22.506;2024-01-10T19:32:17;133.52;;;41.33;;
62401;SDS011;48440;51.224;22.506;2024-01-10T19:34:43;130.15;;;44.40;;
62401;SDS011;48440;51.224;22.506;2024-01-10T19:37:08;120.68;;;39.42;;
62401;SDS011;48440;51.224;22.506;2024-01-10T19:39:34;125.43;;;42.28;;
62401;SDS011;48440;51.224;22.506;2024-01-10T19:42:00;124.25;;;42.53;;
62401;SDS011;48440;51.224;22.506;2024-01-10T19:44:26;121.25;;;40.35;;
62401;SDS011;48440;51.224;22.506;2024-01-10T19:46:52;129.02;;;42.28;;
62401;SDS011;48440;51.224;22.506;2024-01-10T19:49:18;127.13;;;41.55;;
62401;SDS011;48440;51.224;22.506;2024-01-10T19:51:43;131.27;;;41.53;;
62401;SDS011;48440;51.224;22.506;2024-01-10T19:54:10;121.57;;;42.45;;
62401;SDS011;48440;51.224;22.506;2024-01-10T19:56:36;135.00;;;42.55;;
62401;SDS011;48440;51.224;22.506;2024-01-10T19:59:01;133.82;;;41.97;;
62401;SDS011;48440;51.224;22.506;2024-01-10T20:01:28;137.85;;;43.00;;
62401;SDS011;48440;51.224;22.506;2024-01-10T20:03:54;115.30;;;39.92;;
62401;SDS011;48440;51.224;22.506;2024-01-10T20:06:20;133.80;;;43.28;;
62401;SDS011;48440;51.224;22.506;2024-01-10T20:08:46;114.47;;;37.75;;
62401;SDS011;48440;51.224;22.506;2024-01-10T20:11:11;110.97;;;38.28;;
62401;SDS011;48440;51.224;22.506;2024-01-10T20:13:37;118.10;;;39.72;;
62401;SDS011;48440;51.224;22.506;2024-01-10T20:16:03;113.68;;;35.33;;
62401;SDS011;48440;51.224;22.506;2024-01-10T20:18:31;108.43;;;35.92;;
62401;SDS011;48440;51.224;22.506;2024-01-10T20:20:57;92.15;;;33.10;;
62401;SDS011;48440;51.224;22.506;2024-01-10T20:23:23;94.72;;;31.98;;
62401;SDS011;48440;51.224;22.506;2024-01-10T20:25:51;90.32;;;31.40;;
62401;SDS011;48440;51.224;22.506;2024-01-10T20:28:19;84.22;;;29.80;;
62401;SDS011;48440;51.224;22.506;2024-01-10T20:30:46;86.32;;;30.13;;
62401;SDS011;48440;51.224;22.506;2024-01-10T20:33:12;87.60;;;29.92;;
62401;SDS011;48440;51.224;22.506;2024-01-10T20:35:37;93.85;;;33.67;;
62401;SDS011;48440;51.224;22.506;2024-01-10T20:38:03;82.70;;;29.10;;
62401;SDS011;48440;51.224;22.506;2024-01-10T20:40:29;99.28;;;31.63;;
62401;SDS011;48440;51.224;22.506;2024-01-10T20:42:54;89.13;;;29.00;;
62401;SDS011;48440;51.224;22.506;2024-01-10T20:45:22;91.45;;;30.13;;
62401;SDS011;48440;51.224;22.506;2024-01-10T20:47:57;92.55;;;28.00;;
62401;SDS011;48440;51.224;22.506;2024-01-10T20:50:25;91.35;;;28.98;;
62401;SDS011;48440;51.224;22.506;2024-01-10T20:52:50;80.32;;;28.27;;
62401;SDS011;48440;51.224;22.506;2024-01-10T20:55:22;91.32;;;26.98;;